Time;durP1;ratioP1;P1;durP2;ratioP2;P2;SDS_P1;SDS_P2;PMS_P1;PMS_P2;Temp;Humidity;BMP_temperature;BMP_pressure;BME280_temperature;BME280_humidity;BME280_pressure;Samples;Min_cycle;Max_cycle;Signal;HPM_P1;HPM_P2
2021/06/12 00:00:32;;;;;;;10.35;6.85;;;;;;;;;;5071034;28;20096;-64
2021/06/12 00:02:59;;;;;;;11.95;7.45;;;;;;;;;;5084005;28;20061;-63
2021/06/12 00:05:25;;;;;;;10.43;7.32;;;;;;;;;;5090956;28;20039;-63
2021/06/12 00:07:52;;;;;;;11.18;6.72;;;;;;;;;;5089850;28;20016;-63
2021/06/12 00:10:22;;;;;;;11.43;7.43;;;;;;;;;;5084280;28;20059;-63
2021/06/12 00:13:02;;;;;;;14.38;7.32;;;;;;;;;;5088450;28;20148;-64
2021/06/12 00:15:29;;;;;;;11.50;7.03;;;;;;;;;;5081835;28;20028;-63
2021/06/12 00:17:55;;;;;;;14.95;8.60;;;;;;;;;;5086677;28;20032;-64
2021/06/12 00:20:23;;;;;;;13.50;7.55;;;;;;;;;;5088478;28;20291;-64
2021/06/12 00:22:49;;;;;;;12.45;7.88;;;;;;;;;;5085699;28;20110;-64
2021/06/12 00:25:17;;;;;;;13.70;8.52;;;;;;;;;;5055916;28;20068;-64
2021/06/12 00:27:45;;;;;;;13.20;7.95;;;;;;;;;;5067966;28;20016;-64
2021/06/12 00:30:12;;;;;;;12.85;7.85;;;;;;;;;;5082978;28;20078;-64
2021/06/12 00:32:38;;;;;;;14.50;8.50;;;;;;;;;;5080208;28;20071;-63
2021/06/12 00:35:05;;;;;;;13.57;7.68;;;;;;;;;;5068674;28;20450;-64
2021/06/12 00:38:13;;;;;;;15.13;8.68;;;;;;;;;;5037099;27;20368;-64
2021/06/12 00:40:39;;;;;;;14.23;9.05;;;;;;;;;;4992446;28;20023;-62
2021/06/12 00:43:05;;;;;;;13.65;9.25;;;;;;;;;;4985820;28;20286;-65
2021/06/12 00:45:34;;;;;;;13.25;8.43;;;;;;;;;;4985580;28;20031;-62
2021/06/12 00:48:03;;;;;;;12.35;8.02;;;;;;;;;;4985720;28;20054;-63
2021/06/12 00:50:31;;;;;;;13.20;8.75;;;;;;;;;;4986085;28;20066;-63
2021/06/12 00:52:57;;;;;;;13.48;8.43;;;;;;;;;;4985568;28;20033;-64
2021/06/12 00:55:23;;;;;;;14.13;8.85;;;;;;;;;;4985802;28;20034;-64
2021/06/12 00:57:49;;;;;;;19.17;9.60;;;;;;;;;;4984433;28;20022;-63
2021/06/12 01:00:17;;;;;;;12.38;8.80;;;;;;;;;;4984432;28;20114;-63
2021/06/12 01:02:43;;;;;;;17.08;9.30;;;;;;;;;;4985461;28;20061;-63
2021/06/12 01:05:10;;;;;;;16.00;9.27;;;;;;;;;;4985882;28;20077;-63
2021/06/12 01:07:36;;;;;;;13.75;8.52;;;;;;;;;;4985399;28;20039;-63
2021/06/12 01:10:05;;;;;;;13.95;9.23;;;;;;;;;;4985514;28;20054;-63
2021/06/12 01:12:38;;;;;;;14.75;10.05;;;;;;;;;;5004500;28;20037;-63
2021/06/12 01:15:10;;;;;;;15.30;9.38;;;;;;;;;;5004715;28;20026;-63
2021/06/12 01:17:58;;;;;;;17.42;10.50;;;;;;;;;;4997497;28;20037;-63
2021/06/12 01:20:43;;;;;;;14.43;9.50;;;;;;;;;;4994404;28;20033;-63
2021/06/12 01:23:12;;;;;;;15.77;10.27;;;;;;;;;;4985138;28;20029;-63
2021/06/12 01:25:40;;;;;;;17.67;10.15;;;;;;;;;;4985310;28;20018;-63
2021/06/12 01:28:25;;;;;;;18.48;10.93;;;;;;;;;;4984190;28;20026;-64
2021/06/12 01:30:53;;;;;;;17.42;10.93;;;;;;;;;;5000358;28;20109;-63
2021/06/12 01:33:22;;;;;;;17.23;10.18;;;;;;;;;;4991471;28;20095;-64
2021/06/12 01:35:50;;;;;;;16.40;11.10;;;;;;;;;;5004334;28;20095;-63
2021/06/12 01:38:22;;;;;;;19.08;11.35;;;;;;;;;;4997947;28;20037;-63
2021/06/12 01:40:49;;;;;;;16.75;10.93;;;;;;;;;;4994528;28;20030;-64
2021/06/12 01:43:18;;;;;;;18.33;11.25;;;;;;;;;;4984941;28;20033;-64
2021/06/12 01:45:47;;;;;;;17.42;10.55;;;;;;;;;;4984727;28;20057;-64
2021/06/12 01:48:16;;;;;;;17.90;10.43;;;;;;;;;;4978899;28;20382;-64
2021/06/12 01:50:43;;;;;;;18.65;10.90;;;;;;;;;;4981982;28;20106;-64
2021/06/12 01:53:10;;;;;;;14.98;9.73;;;;;;;;;;4991001;28;20394;-64
2021/06/12 01:55:37;;;;;;;17.38;10.27;;;;;;;;;;4991035;28;20059;-64
2021/06/12 01:58:06;;;;;;;17.73;10.65;;;;;;;;;;4983434;28;20356;-64
2021/06/12 02:00:35;;;;;;;17.27;11.23;;;;;;;;;;4980347;28;20023;-64
2021/06/12 02:03:04;;;;;;;17.30;11.25;;;;;;;;;;4971676;28;20026;-64
2021/06/12 02:05:30;;;;;;;20.75;11.23;;;;;;;;;;4971721;28;20019;-64
2021/06/12 02:07:57;;;;;;;18.10;11.00;;;;;;;;;;4971532;28;20031;-63
2021/06/12 02:10:24;;;;;;;18.23;12.07;;;;;;;;;;4970673;28;20066;-63
2021/06/12 02:12:51;;;;;;;16.10;10.20;;;;;;;;;;4988631;28;20034;-62
2021/06/12 02:15:18;;;;;;;20.10;12.00;;;;;;;;;;4989590;28;20026;-64
2021/06/12 02:17:44;;;;;;;21.10;11.65;;;;;;;;;;4986787;28;20038;-63
2021/06/12 02:20:11;;;;;;;20.27;12.45;;;;;;;;;;4986870;28;20136;-63
2021/06/12 02:22:44;;;;;;;21.00;12.77;;;;;;;;;;4971519;28;20570;-63
2021/06/12 02:25:11;;;;;;;23.23;12.70;;;;;;;;;;4971394;28;20550;-64
2021/06/12 02:27:40;;;;;;;22.08;13.20;;;;;;;;;;4971385;28;20031;-63
2021/06/12 02:30:06;;;;;;;21.90;12.73;;;;;;;;;;4982710;28;20057;-63
2021/06/12 02:32:35;;;;;;;23.27;13.15;;;;;;;;;;4990407;28;20040;-63
2021/06/12 02:35:01;;;;;;;25.13;14.98;;;;;;;;;;4990320;28;20034;-63
2021/06/12 02:37:27;;;;;;;28.25;14.38;;;;;;;;;;4984374;28;20077;-63
2021/06/12 02:39:53;;;;;;;22.17;12.82;;;;;;;;;;4984494;28;20602;-64
2021/06/12 02:42:20;;;;;;;22.73;13.88;;;;;;;;;;4977592;28;20023;-64
2021/06/12 02:44:48;;;;;;;24.63;14.38;;;;;;;;;;4971071;28;20023;-64
2021/06/12 02:47:14;;;;;;;21.35;12.15;;;;;;;;;;4970992;28;20152;-63
2021/06/12 02:49:41;;;;;;;23.77;13.38;;;;;;;;;;4971118;28;20038;-61
2021/06/12 02:52:11;;;;;;;27.35;15.10;;;;;;;;;;4982011;28;20038;-63
2021/06/12 02:54:41;;;;;;;21.60;13.40;;;;;;;;;;4984143;28;20027;-63
2021/06/12 02:57:07;;;;;;;19.42;12.45;;;;;;;;;;4985363;28;20031;-63
2021/06/12 02:59:35;;;;;;;23.02;14.15;;;;;;;;;;4987461;28;20091;-63
2021/06/12 03:02:01;;;;;;;21.60;13.27;;;;;;;;;;4978055;28;20042;-63
2021/06/12 03:04:30;;;;;;;23.13;13.68;;;;;;;;;;4970765;28;20031;-63
2021/06/12 03:06:57;;;;;;;22.05;14.02;;;;;;;;;;4970763;28;20033;-63
2021/06/12 03:09:24;;;;;;;24.48;14.93;;;;;;;;;;4970626;28;20034;-62
2021/06/12 03:11:51;;;;;;;24.95;14.60;;;;;;;;;;4970603;28;20041;-64
2021/06/12 03:14:18;;;;;;;27.75;14.45;;;;;;;;;;4988650;28;20466;-63
2021/06/12 03:16:46;;;;;;;23.30;14.75;;;;;;;;;;4981777;28;20036;-63
2021/06/12 03:19:16;;;;;;;26.02;14.32;;;;;;;;;;4989919;28;20030;-63
2021/06/12 03:21:43;;;;;;;26.65;15.25;;;;;;;;;;4989716;28;20335;-63
2021/06/12 03:24:10;;;;;;;25.58;14.45;;;;;;;;;;4971457;28;20432;-63
2021/06/12 03:26:36;;;;;;;30.13;14.40;;;;;;;;;;4970520;28;20472;-63
2021/06/12 03:29:05;;;;;;;23.50;14.18;;;;;;;;;;4970456;28;20022;-63
2021/06/12 03:31:31;;;;;;;25.45;14.88;;;;;;;;;;4975670;28;20030;-63
2021/06/12 03:33:57;;;;;;;24.63;14.32;;;;;;;;;;4976757;28;20031;-63
2021/06/12 03:36:29;;;;;;;28.80;15.38;;;;;;;;;;4982996;28;20050;-63
2021/06/12 03:38:56;;;;;;;29.60;15.50;;;;;;;;;;4988432;28;20362;-63
2021/06/12 03:41:22;;;;;;;25.33;14.25;;;;;;;;;;4989413;28;20030;-63
2021/06/12 03:43:49;;;;;;;28.00;16.27;;;;;;;;;;4977797;28;20420;-63
2021/06/12 03:46:16;;;;;;;25.40;15.00;;;;;;;;;;4970191;28;20613;-63
2021/06/12 03:48:44;;;;;;;34.47;16.08;;;;;;;;;;4970139;28;20026;-63
2021/06/12 03:51:14;;;;;;;27.73;16.55;;;;;;;;;;4968951;28;20380;-63
2021/06/12 03:53:44;;;;;;;29.00;17.00;;;;;;;;;;4987766;28;20105;-63
2021/06/12 03:56:10;;;;;;;26.30;15.38;;;;;;;;;;4989156;28;20031;-63
2021/06/12 03:58:36;;;;;;;30.60;16.75;;;;;;;;;;4989089;28;20022;-64
2021/06/12 04:01:02;;;;;;;31.10;15.95;;;;;;;;;;4975649;28;20022;-63
2021/06/12 04:03:28;;;;;;;28.10;16.23;;;;;;;;;;4968668;28;20149;-63
2021/06/12 04:05:55;;;;;;;26.95;15.05;;;;;;;;;;4969850;28;20177;-63
2021/06/12 04:08:21;;;;;;;30.45;16.25;;;;;;;;;;4969785;28;20023;-63
2021/06/12 04:10:47;;;;;;;24.90;15.40;;;;;;;;;;4969769;28;20038;-64
2021/06/12 04:13:13;;;;;;;25.08;15.57;;;;;;;;;;4981233;28;20033;-63
2021/06/12 04:15:41;;;;;;;26.67;14.65;;;;;;;;;;4982379;28;20164;-63
2021/06/12 04:18:08;;;;;;;26.30;13.63;;;;;;;;;;4981584;28;20463;-64
2021/06/12 04:20:35;;;;;;;20.45;11.60;;;;;;;;;;4988854;28;20337;-63
2021/06/12 04:23:01;;;;;;;16.65;10.30;;;;;;;;;;4970948;28;20439;-63
2021/06/12 04:25:27;;;;;;;19.02;11.23;;;;;;;;;;4969590;28;20038;-64
2021/06/12 04:27:53;;;;;;;19.02;11.15;;;;;;;;;;4969533;28;20046;-64
2021/06/12 04:30:20;;;;;;;21.77;10.60;;;;;;;;;;4980529;28;20434;-63
2021/06/12 04:32:46;;;;;;;21.17;11.25;;;;;;;;;;4988736;28;20027;-63
2021/06/12 04:35:13;;;;;;;17.65;11.57;;;;;;;;;;4988569;28;20622;-63
2021/06/12 04:37:39;;;;;;;17.30;9.57;;;;;;;;;;4976172;28;20057;-63
2021/06/12 04:40:05;;;;;;;16.10;9.98;;;;;;;;;;4984616;28;20090;-63
2021/06/12 04:42:31;;;;;;;17.20;9.68;;;;;;;;;;4969379;28;20359;-63
2021/06/12 04:44:57;;;;;;;13.82;8.90;;;;;;;;;;4969327;28;20034;-63
2021/06/12 04:47:25;;;;;;;14.40;9.77;;;;;;;;;;4969200;28;20038;-63
2021/06/12 04:49:51;;;;;;;16.50;9.38;;;;;;;;;;4972986;28;20355;-63
2021/06/12 04:52:17;;;;;;;14.00;9.32;;;;;;;;;;4987334;28;20026;-64
2021/06/12 04:54:43;;;;;;;17.83;9.75;;;;;;;;;;4987406;28;20038;-63
2021/06/12 04:57:12;;;;;;;11.70;8.30;;;;;;;;;;4985336;28;20031;-63
2021/06/12 04:59:38;;;;;;;16.77;8.98;;;;;;;;;;4981339;28;20034;-63
2021/06/12 05:02:06;;;;;;;16.52;8.85;;;;;;;;;;4968037;28;20031;-64
2021/06/12 05:04:32;;;;;;;17.75;9.43;;;;;;;;;;4968061;28;20041;-63
2021/06/12 05:06:58;;;;;;;16.17;8.15;;;;;;;;;;4969307;28;20119;-63
2021/06/12 05:09:24;;;;;;;14.90;8.15;;;;;;;;;;4969123;28;20027;-63
2021/06/12 05:11:51;;;;;;;11.68;7.95;;;;;;;;;;4971976;28;20580;-63
2021/06/12 05:14:17;;;;;;;12.98;8.23;;;;;;;;;;4988320;28;20034;-63
2021/06/12 05:16:43;;;;;;;13.32;9.00;;;;;;;;;;4983313;28;20049;-63
2021/06/12 05:19:09;;;;;;;11.05;6.88;;;;;;;;;;4988166;28;20023;-65
2021/06/12 05:21:36;;;;;;;11.50;6.88;;;;;;;;;;4979620;28;20495;-64
2021/06/12 05:24:02;;;;;;;9.60;5.88;;;;;;;;;;4970961;28;20204;-63
2021/06/12 05:26:28;;;;;;;9.23;6.15;;;;;;;;;;4972258;28;20102;-63
2021/06/12 05:28:54;;;;;;;9.60;5.70;;;;;;;;;;4972314;28;20110;-63
2021/06/12 05:31:21;;;;;;;9.13;5.10;;;;;;;;;;4973886;28;20059;-63
2021/06/12 05:33:47;;;;;;;9.70;6.18;;;;;;;;;;4991364;28;20026;-63
2021/06/12 05:36:13;;;;;;;9.00;5.57;;;;;;;;;;4984497;28;20127;-64
2021/06/12 05:38:39;;;;;;;8.85;5.32;;;;;;;;;;4984970;28;20565;-63
2021/06/12 05:41:05;;;;;;;7.97;5.47;;;;;;;;;;4991247;28;20167;-63
2021/06/12 05:43:31;;;;;;;9.07;5.10;;;;;;;;;;4982415;28;20022;-63
2021/06/12 05:45:57;;;;;;;10.73;4.47;;;;;;;;;;4970724;28;20114;-63
2021/06/12 05:48:25;;;;;;;9.25;5.32;;;;;;;;;;4971915;28;20023;-63
2021/06/12 05:50:51;;;;;;;9.10;4.93;;;;;;;;;;4972008;28;20094;-63
2021/06/12 05:53:20;;;;;;;7.53;4.35;;;;;;;;;;4977405;28;20049;-63
2021/06/12 05:55:46;;;;;;;5.78;4.55;;;;;;;;;;4985769;28;20019;-63
2021/06/12 05:58:12;;;;;;;5.93;4.13;;;;;;;;;;4990430;28;20079;-63
2021/06/12 06:00:40;;;;;;;6.25;4.30;;;;;;;;;;4978915;28;20030;-63
2021/06/12 06:03:07;;;;;;;6.20;4.40;;;;;;;;;;4977298;28;20026;-63
2021/06/12 06:05:33;;;;;;;8.85;4.88;;;;;;;;;;4971993;28;20027;-64
2021/06/12 06:07:59;;;;;;;6.60;4.72;;;;;;;;;;4971539;28;20031;-66
2021/06/12 06:10:25;;;;;;;11.13;4.50;;;;;;;;;;4971575;28;20038;-64
2021/06/12 06:12:51;;;;;;;8.40;3.95;;;;;;;;;;4971618;28;20023;-64
2021/06/12 06:15:17;;;;;;;7.53;5.03;;;;;;;;;;4984159;28;20042;-65
2021/06/12 06:17:43;;;;;;;5.30;4.47;;;;;;;;;;4989246;28;20062;-63
2021/06/12 06:20:10;;;;;;;6.53;3.88;;;;;;;;;;4984814;28;20031;-63
2021/06/12 06:22:37;;;;;;;8.63;4.07;;;;;;;;;;4990448;28;20403;-63
2021/06/12 06:25:04;;;;;;;6.90;4.18;;;;;;;;;;4971710;28;20019;-63
2021/06/12 06:27:30;;;;;;;5.97;3.70;;;;;;;;;;4971437;28;20042;-63
2021/06/12 06:29:56;;;;;;;4.68;3.42;;;;;;;;;;4970199;28;20037;-63
2021/06/12 06:32:22;;;;;;;5.95;3.25;;;;;;;;;;4971436;28;20058;-63
2021/06/12 06:34:48;;;;;;;5.80;3.65;;;;;;;;;;4983066;28;20027;-64
2021/06/12 06:37:14;;;;;;;4.35;3.10;;;;;;;;;;4990215;28;20042;-63
2021/06/12 06:39:40;;;;;;;5.82;3.10;;;;;;;;;;4990276;28;20019;-63
2021/06/12 06:42:09;;;;;;;2.88;2.50;;;;;;;;;;4984129;28;20049;-64
2021/06/12 06:44:36;;;;;;;5.07;2.80;;;;;;;;;;4978572;28;20538;-63
2021/06/12 06:47:06;;;;;;;7.85;2.47;;;;;;;;;;4971043;28;20027;-63
2021/06/12 06:49:32;;;;;;;5.43;2.50;;;;;;;;;;4971034;28;20027;-64
2021/06/12 06:52:00;;;;;;;2.92;2.20;;;;;;;;;;4970325;28;20491;-64
2021/06/12 06:54:26;;;;;;;3.25;2.00;;;;;;;;;;4976409;28;20412;-64
2021/06/12 06:56:53;;;;;;;8.13;2.55;;;;;;;;;;4983613;28;20368;-64
2021/06/12 06:59:19;;;;;;;4.50;2.58;;;;;;;;;;4983989;28;20130;-64
2021/06/12 07:01:45;;;;;;;5.40;2.40;;;;;;;;;;4990005;28;20026;-63
2021/06/12 07:04:11;;;;;;;3.97;2.70;;;;;;;;;;4985499;28;20336;-63
2021/06/12 07:06:37;;;;;;;5.15;2.20;;;;;;;;;;4970946;28;20034;-64
2021/06/12 07:09:03;;;;;;;5.43;2.70;;;;;;;;;;4970913;28;20103;-65
2021/06/12 07:11:29;;;;;;;4.75;2.47;;;;;;;;;;4971091;28;20448;-64
2021/06/12 07:13:57;;;;;;;8.57;4.18;;;;;;;;;;4981601;28;20026;-64
2021/06/12 07:16:23;;;;;;;5.57;2.53;;;;;;;;;;4986184;28;20100;-66
2021/06/12 07:18:49;;;;;;;5.07;2.72;;;;;;;;;;4988025;28;20100;-64
2021/06/12 07:21:15;;;;;;;4.43;2.55;;;;;;;;;;4980131;28;20023;-64
2021/06/12 07:23:42;;;;;;;2.60;2.22;;;;;;;;;;4977389;28;20057;-63
2021/06/12 07:26:10;;;;;;;6.65;2.75;;;;;;;;;;4970646;28;20100;-63
2021/06/12 07:28:36;;;;;;;4.78;2.78;;;;;;;;;;4970674;28;20027;-64
2021/06/12 07:31:04;;;;;;;4.25;3.25;;;;;;;;;;4970590;28;20027;-64
2021/06/12 07:33:30;;;;;;;4.75;3.70;;;;;;;;;;4987567;28;20469;-63
2021/06/12 07:35:57;;;;;;;6.30;4.65;;;;;;;;;;4989331;28;20023;-64
2021/06/12 07:38:23;;;;;;;6.63;4.57;;;;;;;;;;4985013;28;20050;-64
2021/06/12 07:40:49;;;;;;;7.10;5.93;;;;;;;;;;4986632;28;20035;-64
2021/06/12 07:43:19;;;;;;;6.35;4.57;;;;;;;;;;4986110;28;20023;-64
2021/06/12 07:45:46;;;;;;;6.32;4.25;;;;;;;;;;4969655;28;20022;-64
2021/06/12 07:48:12;;;;;;;6.57;3.67;;;;;;;;;;4970163;28;20037;-63
2021/06/12 07:50:38;;;;;;;6.00;4.38;;;;;;;;;;4980106;28;20118;-64
2021/06/12 07:53:07;;;;;;;5.40;4.45;;;;;;;;;;4989413;28;20052;-64
2021/06/12 07:55:33;;;;;;;8.00;5.72;;;;;;;;;;4986223;28;20077;-63
2021/06/12 07:58:00;;;;;;;7.45;5.07;;;;;;;;;;4986610;28;20038;-64
2021/06/12 08:00:26;;;;;;;9.40;6.95;;;;;;;;;;4973365;28;20015;-64
2021/06/12 08:02:52;;;;;;;8.93;6.63;;;;;;;;;;4970107;28;20152;-64
2021/06/12 08:05:18;;;;;;;9.77;6.53;;;;;;;;;;4970242;28;20050;-64
2021/06/12 08:07:47;;;;;;;7.60;6.45;;;;;;;;;;4970055;28;20108;-64
2021/06/12 08:10:13;;;;;;;12.63;8.63;;;;;;;;;;4985876;28;20030;-63
2021/06/12 08:12:45;;;;;;;9.70;8.10;;;;;;;;;;4986678;28;20041;-63
2021/06/12 08:15:12;;;;;;;9.82;7.30;;;;;;;;;;4979905;28;20432;-63
2021/06/12 08:17:38;;;;;;;8.23;7.28;;;;;;;;;;4985309;28;20470;-63
2021/06/12 08:20:04;;;;;;;8.38;6.30;;;;;;;;;;4971834;28;20444;-63
2021/06/12 08:22:30;;;;;;;7.30;5.80;;;;;;;;;;4969884;28;20042;-66
2021/06/12 08:24:56;;;;;;;10.02;8.27;;;;;;;;;;4968808;28;20087;-64
2021/06/12 08:27:22;;;;;;;9.35;7.40;;;;;;;;;;4969924;28;20046;-64
2021/06/12 08:29:49;;;;;;;8.75;7.63;;;;;;;;;;4985238;28;20046;-64
2021/06/12 08:32:15;;;;;;;13.13;9.75;;;;;;;;;;4976142;28;20084;-64
2021/06/12 08:34:41;;;;;;;10.07;7.55;;;;;;;;;;4982574;28;20080;-64
2021/06/12 08:37:08;;;;;;;12.80;8.88;;;;;;;;;;4980261;28;20047;-64
2021/06/12 08:39:34;;;;;;;9.68;8.35;;;;;;;;;;4969677;28;20022;-64
2021/06/12 08:42:00;;;;;;;8.65;7.22;;;;;;;;;;4969599;28;20098;-64
2021/06/12 08:44:27;;;;;;;8.05;7.22;;;;;;;;;;4969565;28;20034;-64
2021/06/12 08:46:53;;;;;;;8.82;7.80;;;;;;;;;;4971676;28;20062;-64
2021/06/12 08:49:20;;;;;;;11.45;8.27;;;;;;;;;;4988734;28;20347;-64
2021/06/12 08:51:48;;;;;;;9.32;7.85;;;;;;;;;;4986809;28;20520;-64
2021/06/12 08:54:16;;;;;;;9.05;7.90;;;;;;;;;;4984123;28;20102;-64
2021/06/12 08:56:46;;;;;;;11.10;8.98;;;;;;;;;;4987171;28;20109;-65
2021/06/12 08:59:12;;;;;;;15.50;10.23;;;;;;;;;;4971443;28;20034;-64
2021/06/12 09:01:38;;;;;;;9.10;7.88;;;;;;;;;;4972965;28;20550;-64
2021/06/12 09:04:04;;;;;;;11.55;9.52;;;;;;;;;;4972880;28;20027;-62
2021/06/12 09:06:30;;;;;;;10.13;8.82;;;;;;;;;;4972926;28;20023;-63
2021/06/12 09:08:59;;;;;;;12.13;9.75;;;;;;;;;;4980924;28;20110;-63
2021/06/12 09:11:26;;;;;;;11.60;10.20;;;;;;;;;;4992011;28;20109;-63
2021/06/12 09:13:54;;;;;;;11.65;10.02;;;;;;;;;;4990735;28;20080;-63
2021/06/12 09:16:23;;;;;;;12.50;10.63;;;;;;;;;;4990240;28;20061;-63
2021/06/12 09:18:50;;;;;;;11.02;9.90;;;;;;;;;;4976725;28;20047;-64
2021/06/12 09:21:23;;;;;;;11.70;10.50;;;;;;;;;;4972986;28;20023;-64
2021/06/12 09:23:49;;;;;;;13.43;10.80;;;;;;;;;;4972708;28;20455;-63
2021/06/12 09:26:15;;;;;;;15.00;11.35;;;;;;;;;;4971608;28;20023;-63
2021/06/12 09:28:45;;;;;;;14.98;11.55;;;;;;;;;;4981290;28;20527;-63
2021/06/12 09:31:18;;;;;;;16.02;11.57;;;;;;;;;;4991778;28;20026;-63
2021/06/12 09:33:46;;;;;;;14.20;10.70;;;;;;;;;;4991699;28;20114;-63
2021/06/12 09:36:13;;;;;;;16.60;11.95;;;;;;;;;;4977970;28;20093;-62
2021/06/12 09:38:40;;;;;;;14.35;10.73;;;;;;;;;;4976209;28;20432;-63
2021/06/12 09:41:26;;;;;;;14.20;10.70;;;;;;;;;;4972031;28;20023;-63
2021/06/12 09:43:53;;;;;;;15.75;10.70;;;;;;;;;;4974329;28;20109;-66
2021/06/12 09:46:36;;;;;;;13.90;10.80;;;;;;;;;;4981410;28;20026;-65
2021/06/12 09:49:02;;;;;;;13.45;9.63;;;;;;;;;;4982935;28;20026;-62
2021/06/12 09:51:28;;;;;;;16.10;10.50;;;;;;;;;;4982230;28;20084;-63
2021/06/12 09:53:56;;;;;;;14.13;10.25;;;;;;;;;;4989923;28;20018;-63
2021/06/12 09:56:24;;;;;;;11.30;10.10;;;;;;;;;;4991111;28;20109;-63
2021/06/12 09:58:50;;;;;;;13.50;9.73;;;;;;;;;;4986881;28;20377;-63
2021/06/12 10:01:18;;;;;;;11.73;8.43;;;;;;;;;;4980110;28;20029;-64
2021/06/12 10:03:45;;;;;;;13.45;10.30;;;;;;;;;;4980857;28;20029;-64
2021/06/12 10:06:20;;;;;;;14.30;9.93;;;;;;;;;;4980445;28;20344;-68
2021/06/12 10:08:49;;;;;;;15.27;9.75;;;;;;;;;;4981089;28;20135;-64
2021/06/12 10:11:15;;;;;;;12.15;9.63;;;;;;;;;;4984790;28;20023;-64
2021/06/12 10:13:44;;;;;;;16.95;11.45;;;;;;;;;;4985785;28;20014;-63
2021/06/12 10:16:13;;;;;;;17.77;11.07;;;;;;;;;;4981419;28;20367;-64
2021/06/12 10:18:40;;;;;;;12.40;9.68;;;;;;;;;;4977960;28;20018;-63
2021/06/12 10:21:10;;;;;;;13.70;9.93;;;;;;;;;;4981323;28;20059;-64
2021/06/12 10:23:41;;;;;;;12.90;10.37;;;;;;;;;;4990485;28;20026;-63
2021/06/12 10:26:07;;;;;;;;;;;;;;;;;;4982826;28;20296;-64
2021/06/12 10:28:34;;;;;;;13.70;9.90;;;;;;;;;;4980173;28;19937;-64
2021/06/12 10:31:20;;;;;;;12.73;9.80;;;;;;;;;;4984316;28;20341;-64
2021/06/12 10:33:48;;;;;;;12.18;9.77;;;;;;;;;;4982921;28;20110;-63
2021/06/12 10:36:14;;;;;;;12.60;9.55;;;;;;;;;;4984800;28;20056;-64
2021/06/12 10:38:40;;;;;;;17.42;9.45;;;;;;;;;;4980665;28;20037;-64
2021/06/12 10:41:17;;;;;;;12.05;8.25;;;;;;;;;;4980182;28;20089;-64
2021/06/12 10:43:44;;;;;;;10.85;8.20;;;;;;;;;;4978861;28;20409;-64
2021/06/12 10:46:15;;;;;;;14.52;9.60;;;;;;;;;;4980156;28;20093;-65
2021/06/12 10:48:41;;;;;;;11.10;9.18;;;;;;;;;;4981806;28;20083;-63
2021/06/12 10:51:13;;;;;;;11.23;8.07;;;;;;;;;;4982388;28;20031;-63
2021/06/12 10:53:42;;;;;;;13.00;8.90;;;;;;;;;;4984826;28;20061;-63
2021/06/12 10:56:10;;;;;;;9.45;8.25;;;;;;;;;;4981663;28;20011;-63
2021/06/12 10:58:36;;;;;;;12.15;9.20;;;;;;;;;;4981162;28;20023;-63
2021/06/12 11:01:12;;;;;;;10.75;8.82;;;;;;;;;;4979282;28;20095;-64
2021/06/12 11:03:56;;;;;;;13.65;9.75;;;;;;;;;;4979346;28;20026;-64
2021/06/12 11:06:35;;;;;;;14.63;9.45;;;;;;;;;;4977257;28;20030;-63
2021/06/12 11:09:20;;;;;;;11.35;8.40;;;;;;;;;;4983101;28;20083;-64
2021/06/12 11:11:56;;;;;;;16.20;9.48;;;;;;;;;;4976782;28;20109;-64
2021/06/12 11:14:23;;;;;;;10.93;9.07;;;;;;;;;;4986261;28;20102;-63
2021/06/12 11:17:08;;;;;;;13.25;8.77;;;;;;;;;;4980263;28;20105;-64
2021/06/12 11:19:34;;;;;;;10.70;8.73;;;;;;;;;;4980223;28;20014;-64
2021/06/12 11:22:19;;;;;;;10.98;9.35;;;;;;;;;;4977145;28;20473;-64
2021/06/12 11:24:48;;;;;;;13.18;9.02;;;;;;;;;;4977928;28;20105;-64
2021/06/12 11:27:27;;;;;;;9.60;8.30;;;;;;;;;;4980198;28;20031;-64
2021/06/12 11:30:11;;;;;;;10.57;8.82;;;;;;;;;;4978318;28;20026;-64
2021/06/12 11:32:38;;;;;;;11.93;8.75;;;;;;;;;;4997198;28;20022;-64
2021/06/12 11:35:04;;;;;;;13.65;8.63;;;;;;;;;;4984677;28;20031;-64
2021/06/12 11:37:30;;;;;;;15.50;10.00;;;;;;;;;;4982553;28;20137;-64
2021/06/12 11:39:57;;;;;;;13.98;10.27;;;;;;;;;;4981457;28;20090;-64
2021/06/12 11:42:24;;;;;;;13.40;9.43;;;;;;;;;;4975879;28;20113;-64
2021/06/12 11:44:50;;;;;;;14.00;10.02;;;;;;;;;;4980591;28;20347;-64
2021/06/12 11:47:26;;;;;;;13.90;10.18;;;;;;;;;;4978228;28;20026;-63
2021/06/12 11:49:52;;;;;;;13.35;9.80;;;;;;;;;;4983799;28;20037;-64
2021/06/12 11:52:19;;;;;;;13.43;9.32;;;;;;;;;;4985269;28;20101;-64
2021/06/12 11:54:45;;;;;;;10.52;8.90;;;;;;;;;;4981494;28;20041;-64
2021/06/12 11:57:11;;;;;;;12.57;9.02;;;;;;;;;;4982787;28;20019;-63
2021/06/12 11:59:37;;;;;;;13.10;10.40;;;;;;;;;;4981595;28;20458;-63
2021/06/12 12:02:10;;;;;;;14.13;9.65;;;;;;;;;;4977869;28;20023;-63
2021/06/12 12:04:49;;;;;;;11.13;8.80;;;19.90;99.90;;;;;;4975916;28;20042;-63
2021/06/12 12:07:15;;;;;;;12.05;9.40;;;28.20;96.10;;;;;;4978249;28;20379;-64
2021/06/12 12:09:46;;;;;;;14.32;10.38;;;27.60;95.70;;;;;;4977005;28;20026;-63
2021/06/12 12:12:15;;;;;;;15.40;11.20;;;27.50;96.30;;;;;;4980357;28;20077;-63
2021/06/12 12:14:45;;;;;;;17.95;12.55;;;27.50;95.90;;;;;;4981439;28;20035;-64
2021/06/12 12:17:28;;;;;;;17.88;11.13;;;27.40;95.80;;;;;;4982306;28;20026;-64
2021/06/12 12:20:04;;;;;;;18.35;10.48;;;27.70;95.80;;;;;;4980052;28;20053;-63
2021/06/12 12:22:44;;;;;;;11.90;9.25;;;28.50;94.80;;;;;;4978422;28;20014;-64
2021/06/12 12:25:14;;;;;;;13.00;9.45;;;28.10;94.90;;;;;;4980363;28;20023;-64
2021/06/12 12:27:40;;;;;;;14.32;10.90;;;27.40;95.90;;;;;;4977582;28;20027;-63
2021/06/12 12:30:09;;;;;;;14.70;10.70;;;27.00;96.40;;;;;;4977596;28;20200;-63
2021/06/12 12:32:34;;;;;;;15.93;11.43;;;27.40;96.50;;;;;;4982266;28;20367;-63
2021/06/12 12:35:13;;;;;;;16.90;11.05;;;28.40;94.80;;;;;;4981223;28;20037;-64
2021/06/12 12:37:39;;;;;;;13.38;9.52;;;28.30;93.70;;;;;;4985803;28;20104;-64
2021/06/12 12:40:18;;;;;;;14.48;10.90;;;27.80;93.90;;;;;;4997746;28;20038;-63
2021/06/12 12:42:44;;;;;;;11.98;9.98;;;28.50;93.60;;;;;;4978383;28;20019;-64
2021/06/12 12:45:10;;;;;;;16.88;8.88;;;28.80;93.30;;;;;;4975358;28;20466;-64
2021/06/12 12:47:36;;;;;;;15.15;10.70;;;28.40;93.60;;;;;;4978533;28;20027;-64
2021/06/12 12:50:04;;;;;;;14.48;10.48;;;28.10;93.20;;;;;;4995335;28;20120;-63
2021/06/12 12:52:32;;;;;;;13.50;9.57;;;26.90;93.90;;;;;;4981090;28;20404;-63
2021/06/12 12:55:09;;;;;;;14.38;9.73;;;26.10;96.00;;;;;;4980253;28;20066;-64
2021/06/12 12:57:55;;;;;;;13.40;9.73;;;25.60;96.60;;;;;;4978140;28;20019;-63
2021/06/12 13:00:28;;;;;;;16.77;11.77;;;25.00;97.00;;;;;;4979443;28;20369;-63
2021/06/12 13:02:59;;;;;;;12.57;8.90;;;24.50;97.80;;;;;;4985065;28;20543;-64
2021/06/12 13:05:24;;;;;;;;;;;24.40;98.60;;;;;;4977293;28;20014;-63
2021/06/12 13:07:57;;;;;;;13.73;8.82;;;24.40;98.40;;;;;;4978959;28;19964;-62
2021/06/12 13:10:30;;;;;;;12.05;10.00;;;24.20;99.60;;;;;;4967890;28;20037;-63
2021/06/12 13:12:58;;;;;;;13.45;10.68;;;24.10;98.90;;;;;;4980804;28;20022;-64
2021/06/12 13:15:27;;;;;;;15.68;11.65;;;24.00;99.50;;;;;;4985442;28;20030;-63
2021/06/12 13:18:10;;;;;;;14.10;10.23;;;24.00;99.70;;;;;;4982208;28;20100;-63
2021/06/12 13:20:41;;;;;;;15.25;11.38;;;24.10;99.90;;;;;;4979218;28;20334;-63
2021/06/12 13:23:24;;;;;;;13.40;11.15;;;24.10;99.40;;;;;;4979047;28;20035;-63
2021/06/12 13:26:08;;;;;;;14.52;10.77;;;23.90;99.90;;;;;;4977267;28;20019;-63
2021/06/12 13:28:34;;;;;;;16.80;12.18;;;23.70;99.90;;;;;;4976633;28;20030;-63
2021/06/12 13:31:10;;;;;;;20.02;12.23;;;23.80;99.80;;;;;;4977155;28;20015;-63
2021/06/12 13:33:39;;;;;;;17.75;11.25;;;24.20;99.20;;;;;;4982162;28;20022;-64
2021/06/12 13:36:11;;;;;;;16.05;10.90;;;24.80;98.50;;;;;;4976457;28;20168;-63
2021/06/12 13:38:37;;;;;;;15.80;10.88;;;25.30;97.60;;;;;;4980116;28;20551;-64
2021/06/12 13:41:11;;;;;;;15.10;9.52;;;25.90;97.00;;;;;;4979450;28;20037;-64
2021/06/12 13:43:39;;;;;;;13.90;10.15;;;26.10;96.20;;;;;;4978404;28;20015;-64
2021/06/12 13:46:10;;;;;;;12.23;9.15;;;25.90;96.00;;;;;;4980951;28;20340;-64
2021/06/12 13:48:36;;;;;;;24.40;11.02;;;25.60;96.30;;;;;;4979940;28;20022;-64
2021/06/12 13:51:02;;;;;;;13.32;8.65;;;25.50;96.80;;;;;;4980161;28;20027;-64
2021/06/12 13:53:42;;;;;;;14.48;10.10;;;26.70;95.70;;;;;;4984756;28;20019;-64
2021/06/12 13:56:13;;;;;;;11.07;8.00;;;27.30;94.00;;;;;;5001039;28;20038;-65
2021/06/12 13:58:39;;;;;;;12.95;9.50;;;26.90;93.50;;;;;;4983851;28;20107;-64
2021/06/12 14:01:06;;;;;;;11.95;9.48;;;26.70;93.50;;;;;;4983366;28;20027;-64
2021/06/12 14:03:32;;;;;;;13.13;9.13;;;26.30;93.60;;;;;;4979140;28;20073;-64
2021/06/12 14:06:00;;;;;;;10.57;6.95;;;26.20;93.50;;;;;;4979501;28;20034;-64
2021/06/12 14:08:29;;;;;;;10.93;6.68;;;26.20;92.80;;;;;;4982711;28;20027;-64
2021/06/12 14:10:55;;;;;;;7.88;5.30;;;25.70;91.70;;;;;;4981474;28;20029;-65
2021/06/12 14:13:20;;;;;;;7.25;5.10;;;25.20;91.70;;;;;;4986835;28;20026;-64
2021/06/12 14:15:46;;;;;;;7.03;4.57;;;25.40;92.60;;;;;;4986693;28;20032;-63